Weather History for Boone, IA

Change the Weather History Date:

Tuesday, November 29, 2011

  Actual Average Record
Temperature  
Mean Temperature 34 °F -  
Max Temperature 41 °F 36 °F 68 °F (1998)
Min Temperature 26 °F 18 °F -99 °F (2000)
Degree Days  
Heating Degree Days 32    
Moisture  
Dew Point 19 °F    
Average Humidity 62    
Maximum Humidity 93    
Minimum Humidity 26    
Precipitation  
Precipitation 0.00 in - - ()
Sea Level Pressure  
Sea Level Pressure 30.21 in    
Wind  
Wind Speed 15 mph (NNW)    
Max Wind Speed 24 mph    
Max Gust Speed 28 mph    
Visibility 10 miles    
Events      
Averages and records for this station are not official NWS values.
T = Trace of Precipitation, MM = Missing Value Source: NWS Daily Summary

Daily Weather History Graph

Daily Weather History Graph

Search for Another Location

Airport:

Trip Planner

Search our weather history database for the weather conditions in past years. The results will help you decide how hot, cold, wet, or windy it might be!

Date:

Astronomy

Nov. 29, 2011 Rise Set
Actual Time 7:21 AM CST 4:45 PM CST
Civil Twilight 6:50 AM CST 5:16 PM CST
Nautical Twilight 6:15 AM CST 5:51 PM CST
Astronomical Twilight 5:42 AM CST 6:24 PM CST
Moon 11:06 AM CST (11/29) 9:41 PM CST (11/29)
Length of Visible Light 10h 25m
Length of Day
9h 23m
Waxing Crescent, 24% of the Moon is Illuminated
Nov 29
Waxing Crescent
Dec 2
First Quarter
Dec 10
Full
Dec 17
Last Quarter
Dec 24
New

Hourly Weather History & Observations

Time (CST) Temp. Windchill Dew Point Humidity Pressure Visibility Wind Dir Wind Speed Gust Speed Precip Events Conditions
12:15 AM 33.8 °F 22.5 °F 28.4 °F 81% 30.13 in 10.0 mi North 19.6 mph 23.0 mph N/A   Clear
12:35 AM 35.6 °F 25.5 °F 28.4 °F 75% 30.13 in 10.0 mi North 17.3 mph 24.2 mph N/A   Clear
12:55 AM 35.6 °F 25.5 °F 28.4 °F 75% 30.13 in 10.0 mi North 17.3 mph 21.9 mph N/A   Clear
1:15 AM 35.6 °F 25.2 °F 28.4 °F 75% 30.14 in 10.0 mi North 18.4 mph 24.2 mph N/A   Clear
1:35 AM 35.6 °F 25.2 °F 28.4 °F 75% 30.14 in 10.0 mi North 18.4 mph 25.3 mph N/A   Clear
1:55 AM 33.8 °F 23.5 °F 28.4 °F 81% 30.14 in 10.0 mi North 16.1 mph 21.9 mph N/A   Clear
2:15 AM 33.8 °F 23.2 °F 28.4 °F 81% 30.15 in 10.0 mi North 17.3 mph 24.2 mph N/A   Clear
2:35 AM 33.8 °F 22.2 °F 28.4 °F 81% 30.16 in 10.0 mi North 20.7 mph 25.3 mph N/A   Clear
2:55 AM 32.0 °F 20.8 °F 28.4 °F 87% 30.17 in 10.0 mi North 17.3 mph - N/A   Clear
3:15 AM 32.0 °F 22.5 °F 28.4 °F 87% 30.18 in 10.0 mi North 12.7 mph - N/A   Clear
3:35 AM 32.0 °F 22.5 °F 26.6 °F 80% 30.18 in 10.0 mi North 12.7 mph - N/A   Clear
3:55 AM 32.0 °F 22.1 °F 26.6 °F 80% 30.19 in 10.0 mi North 13.8 mph 19.6 mph N/A   Clear
4:15 AM 30.2 °F 19.8 °F 26.6 °F 86% 30.20 in 10.0 mi North 13.8 mph - N/A   Clear
4:35 AM 30.2 °F 19.8 °F 26.6 °F 86% 30.20 in 10.0 mi North 13.8 mph - N/A   Clear
4:55 AM 30.2 °F 19.8 °F 26.6 °F 86% 30.21 in 10.0 mi NNW 13.8 mph - N/A   Clear
5:15 AM 28.4 °F 18.0 °F 26.6 °F 93% 30.22 in 10.0 mi NNW 12.7 mph - N/A   Clear
5:35 AM 28.4 °F 17.5 °F 26.6 °F 93% 30.22 in 10.0 mi NNW 13.8 mph - N/A   Clear
6:15 AM 28.4 °F 18.5 °F 26.6 °F 93% 30.23 in 10.0 mi NNW 11.5 mph - N/A   Clear
6:35 AM 28.4 °F 19.1 °F 24.8 °F 86% 30.23 in 10.0 mi NNW 10.4 mph - N/A   Clear
6:55 AM 26.6 °F 15.2 °F 24.8 °F 93% 30.24 in 10.0 mi NNW 13.8 mph - N/A   Clear
7:15 AM 26.6 °F 15.7 °F 24.8 °F 93% 30.25 in 10.0 mi NNW 12.7 mph - N/A   Clear
7:35 AM 26.6 °F 14.7 °F 24.8 °F 93% 30.25 in 10.0 mi North 15.0 mph - N/A   Clear
7:55 AM 26.6 °F 15.2 °F 23.0 °F 86% 30.25 in 10.0 mi NNW 13.8 mph - N/A   Clear
8:15 AM 28.4 °F 18.0 °F 24.8 °F 86% 30.25 in 10.0 mi North 12.7 mph - N/A   Clear
8:35 AM 28.4 °F 17.5 °F 24.8 °F 86% 30.25 in 10.0 mi North 13.8 mph - N/A   Clear
8:55 AM 28.4 °F 17.0 °F 24.8 °F 86% 30.25 in 10.0 mi North 15.0 mph - N/A   Clear
9:15 AM 30.2 °F 18.9 °F 24.8 °F 80% 30.25 in 10.0 mi North 16.1 mph 21.9 mph N/A   Clear
9:35 AM 32.0 °F 21.6 °F 23.0 °F 69% 30.26 in 10.0 mi North 15.0 mph 20.7 mph N/A   Clear
9:55 AM 32.0 °F 21.2 °F 23.0 °F 69% 30.27 in 10.0 mi North 16.1 mph 23.0 mph N/A   Clear
10:35 AM 32.0 °F 19.2 °F 23.0 °F 69% 30.27 in 10.0 mi NNW 23.0 mph 26.5 mph N/A   Clear
10:55 AM 33.8 °F 21.3 °F 21.2 °F 60% 30.27 in 10.0 mi NNW 24.2 mph 27.6 mph N/A   Clear
11:15 AM 35.6 °F 24.5 °F 21.2 °F 56% 30.26 in 10.0 mi NNW 20.7 mph 26.5 mph N/A   Clear
11:35 AM 35.6 °F 25.2 °F 19.4 °F 52% 30.26 in 10.0 mi North 18.4 mph 24.2 mph N/A   Clear
11:55 AM 37.4 °F 27.5 °F 19.4 °F 48% 30.25 in 10.0 mi NNW 18.4 mph 25.3 mph N/A   Clear
12:35 PM 37.4 °F 26.6 °F 15.8 °F 41% 30.23 in 10.0 mi NNW 21.9 mph 25.3 mph N/A   Clear
12:55 PM 37.4 °F 27.5 °F 14.0 °F 38% 30.23 in 10.0 mi North 18.4 mph 26.5 mph N/A   Clear
1:55 PM 41.0 °F 32.2 °F 8.6 °F 26% 30.21 in 10.0 mi North 18.4 mph 24.2 mph N/A   Clear
2:15 PM 41.0 °F 33.1 °F 8.6 °F 26% 30.21 in 10.0 mi North 15.0 mph 26.5 mph N/A   Clear
2:35 PM 41.0 °F 32.5 °F 8.6 °F 26% 30.20 in 10.0 mi North 17.3 mph 21.9 mph N/A   Clear
2:55 PM 41.0 °F 33.1 °F 8.6 °F 26% 30.21 in 10.0 mi North 15.0 mph 21.9 mph N/A   Clear
3:15 PM 41.0 °F 33.1 °F 8.6 °F 26% 30.21 in 10.0 mi NNW 15.0 mph 19.6 mph N/A   Clear
3:35 PM 39.2 °F 30.5 °F 8.6 °F 28% 30.21 in 10.0 mi NNW 16.1 mph - N/A   Clear
3:55 PM 37.4 °F 27.8 °F 8.6 °F 30% 30.22 in 10.0 mi NNW 17.3 mph 20.7 mph N/A   Clear
4:15 PM 35.6 °F 27.5 °F 8.6 °F 33% 30.22 in 10.0 mi NNW 11.5 mph - N/A   Clear
4:35 PM 33.8 °F 26.4 °F 8.6 °F 35% 30.22 in 10.0 mi NNW 9.2 mph - N/A   Clear
4:55 PM 32.0 °F 24.2 °F 8.6 °F 38% 30.22 in 10.0 mi NNW 9.2 mph - N/A   Clear
5:15 PM 32.0 °F 26.4 °F 8.6 °F 38% 30.22 in 10.0 mi NNW 5.8 mph - N/A   Clear
5:35 PM 30.2 °F 25.4 °F 8.6 °F 40% 30.22 in 10.0 mi NNW 4.6 mph - N/A   Clear
5:55 PM 30.2 °F 25.4 °F 8.6 °F 40% 30.22 in 10.0 mi NW 4.6 mph - N/A   Clear
6:15 PM 30.2 °F 23.4 °F 8.6 °F 40% 30.21 in 10.0 mi NW 6.9 mph - N/A   Clear
6:35 PM 28.4 °F 22.2 °F 8.6 °F 43% 30.21 in 10.0 mi NW 5.8 mph - N/A   Clear
6:55 PM 30.2 °F 25.4 °F 8.6 °F 40% 30.20 in 10.0 mi NW 4.6 mph - N/A   Clear
7:35 PM 28.4 °F 23.3 °F 8.6 °F 43% 30.21 in 10.0 mi NNW 4.6 mph - N/A   Clear
7:55 PM 26.6 °F 20.0 °F 8.6 °F 47% 30.21 in 10.0 mi NNW 5.8 mph - N/A   Clear
8:15 PM 26.6 °F 20.0 °F 8.6 °F 47% 30.21 in 10.0 mi NW 5.8 mph - N/A   Clear
8:35 PM 26.6 °F 20.0 °F 8.6 °F 47% 30.21 in 10.0 mi NW 5.8 mph - N/A   Clear
8:55 PM 26.6 °F 19.1 °F 8.6 °F 47% 30.21 in 10.0 mi NW 6.9 mph - N/A   Clear
9:15 PM 28.4 °F 21.2 °F 8.6 °F 43% 30.20 in 10.0 mi NW 6.9 mph - N/A   Clear
9:35 PM 28.4 °F 21.2 °F 8.6 °F 43% 30.21 in 10.0 mi NW 6.9 mph - N/A   Clear
9:55 PM 26.6 °F 19.1 °F 8.6 °F 47% 30.20 in 10.0 mi NW 6.9 mph - N/A   Clear
10:15 PM 26.6 °F 19.1 °F 8.6 °F 47% 30.19 in 10.0 mi NW 6.9 mph - N/A   Clear
10:35 PM 26.6 °F 20.0 °F 8.6 °F 47% 30.18 in 10.0 mi NW 5.8 mph - N/A   Clear
10:55 PM 26.6 °F 20.0 °F 6.8 °F 43% 30.18 in 10.0 mi NW 5.8 mph - N/A   Clear
11:35 PM 24.8 °F 19.1 °F 8.6 °F 50% 30.18 in 10.0 mi WNW 4.6 mph - N/A   Clear
11:55 PM 28.4 °F - 8.6 °F 43% 30.17 in 10.0 mi Calm Calm - N/A   Clear